createdAt,value
2016-06-03T00:00:00.185Z,88.3
2016-06-03T00:00:03.138Z,88.3
2016-06-03T00:00:07.060Z,88.3
2016-06-03T00:00:10.013Z,88.1
2016-06-03T00:00:12.951Z,88.1
2016-06-03T00:00:15.888Z,88.2
2016-06-03T00:00:19.810Z,88.1
2016-06-03T00:00:22.747Z,88.1
2016-06-03T00:00:25.685Z,88.1
2016-06-03T00:00:28.622Z,88.2
2016-06-03T00:00:32.560Z,88.1
2016-06-03T00:00:35.513Z,88.2
2016-06-03T00:00:38.451Z,88.2
2016-06-03T00:00:41.388Z,88
2016-06-03T00:00:45.296Z,88
2016-06-03T00:00:48.234Z,88
2016-06-03T00:00:51.171Z,88
2016-06-03T00:00:54.124Z,88.1
2016-06-03T00:00:58.031Z,88
2016-06-03T00:01:00.968Z,88
2016-06-03T00:01:03.906Z,88.5
2016-06-03T00:01:06.859Z,88.5
2016-06-03T00:01:10.781Z,88.2
2016-06-03T00:01:13.718Z,88.6
2016-06-03T00:01:16.640Z,88.6
2016-06-03T00:01:19.578Z,88.6
2016-06-03T00:01:23.499Z,88.6
2016-06-03T00:01:26.437Z,88.6
2016-06-03T00:01:29.390Z,88.6
2016-06-03T00:01:32.343Z,88.7
2016-06-03T00:01:36.249Z,88.8
2016-06-03T00:01:39.203Z,88.6
2016-06-03T00:01:42.140Z,88.8
2016-06-03T00:01:45.065Z,88.5
2016-06-03T00:01:48.831Z,88.5
2016-06-03T00:01:51.784Z,88.4
2016-06-03T00:01:54.706Z,88.8
2016-06-03T00:01:57.643Z,88.7
2016-06-03T00:02:01.424Z,88.3
2016-06-03T00:02:04.362Z,88.3
2016-06-03T00:02:07.315Z,88.5
2016-06-03T00:02:10.252Z,88.6
2016-06-03T00:02:14.018Z,88.2
2016-06-03T00:02:16.956Z,88.4
2016-06-03T00:02:19.893Z,88.3
2016-06-03T00:02:22.846Z,88.5
2016-06-03T00:02:26.456Z,88.5
2016-06-03T00:02:29.393Z,88.5
2016-06-03T00:02:32.346Z,88.5
2016-06-03T00:02:35.284Z,88.2
2016-06-03T00:02:39.190Z,88.3
2016-06-03T00:02:42.127Z,88.8
2016-06-03T00:02:44.912Z,88.2
2016-06-03T00:02:47.849Z,88.8
2016-06-03T00:02:51.771Z,88.9
2016-06-03T00:02:54.709Z,88.9
2016-06-03T00:02:57.662Z,88.4
2016-06-03T00:03:00.615Z,88.8
2016-06-03T00:03:04.568Z,88.8
2016-06-03T00:03:07.490Z,88.9
2016-06-03T00:03:10.443Z,88.5
2016-06-03T00:03:13.380Z,88.9
2016-06-03T00:03:17.287Z,88.5
2016-06-03T00:03:20.224Z,89
2016-06-03T00:03:23.162Z,88.8
2016-06-03T00:03:26.099Z,88.5
2016-06-03T00:03:30.021Z,88.7
2016-06-03T00:03:32.974Z,88.5
2016-06-03T00:03:35.896Z,88.8
2016-06-03T00:03:38.834Z,88.6
2016-06-03T00:03:42.757Z,88.7
2016-06-03T00:03:45.695Z,88.7
2016-06-03T00:03:48.632Z,88.7
2016-06-03T00:03:51.414Z,88.6
2016-06-03T00:03:55.336Z,88.7
2016-06-03T00:03:58.273Z,88.7
2016-06-03T00:04:01.211Z,88.5
2016-06-03T00:04:04.148Z,88.7
2016-06-03T00:04:07.914Z,88.6
2016-06-03T00:04:10.851Z,88.8
2016-06-03T00:04:13.632Z,88.6
2016-06-03T00:04:16.586Z,88.4
2016-06-03T00:04:20.492Z,88.6
2016-06-03T00:04:23.429Z,88.6
2016-06-03T00:04:26.367Z,88.6
2016-06-03T00:04:29.320Z,88.6
2016-06-03T00:04:33.242Z,88.8
2016-06-03T00:04:36.179Z,89
2016-06-03T00:04:39.101Z,88.6
2016-06-03T00:04:42.054Z,89
2016-06-03T00:04:45.963Z,89
2016-06-03T00:04:48.884Z,88.8
2016-06-03T00:04:51.666Z,88.7
2016-06-03T00:04:54.619Z,88.5
2016-06-03T00:04:58.541Z,88.8
2016-06-03T00:05:01.494Z,88.5
2016-06-03T00:05:04.447Z,88.6
2016-06-03T00:05:07.369Z,88.6
2016-06-03T00:05:11.291Z,88.7
2016-06-03T00:05:14.228Z,88.6
2016-06-03T00:05:17.166Z,88.8
2016-06-03T00:05:20.103Z,88.6
2016-06-03T00:05:24.009Z,88.7
2016-06-03T00:05:26.791Z,88.7
2016-06-03T00:05:29.744Z,88.8
2016-06-03T00:05:32.666Z,88.6
2016-06-03T00:05:36.603Z,88.6
2016-06-03T00:05:39.541Z,88.9
2016-06-03T00:05:42.478Z,88.6
2016-06-03T00:05:45.419Z,88.6
2016-06-03T00:05:49.341Z,88.4
2016-06-03T00:05:52.278Z,88.7
2016-06-03T00:05:55.216Z,88.7
2016-06-03T00:05:58.169Z,88.5
2016-06-03T00:06:02.091Z,88.7
2016-06-03T00:06:05.028Z,88.3
2016-06-03T00:06:07.966Z,88.6
2016-06-03T00:06:10.747Z,88.6
2016-06-03T00:06:14.669Z,88.4
2016-06-03T00:06:17.606Z,88.7
2016-06-03T00:06:20.544Z,88.4
2016-06-03T00:06:23.481Z,88.7
2016-06-03T00:06:27.419Z,88.4
2016-06-03T00:06:30.356Z,88.5
2016-06-03T00:06:33.278Z,88.5
2016-06-03T00:06:36.231Z,88.6
2016-06-03T00:06:40.153Z,88.6
2016-06-03T00:06:43.078Z,88.5
2016-06-03T00:06:46.015Z,88.5
2016-06-03T00:06:48.953Z,88.6
2016-06-03T00:06:52.875Z,88.6
2016-06-03T00:06:55.812Z,88.4
2016-06-03T00:06:58.750Z,88.8
2016-06-03T00:07:01.687Z,88.7
2016-06-03T00:07:05.453Z,88.7
2016-06-03T00:07:08.234Z,88.8
2016-06-03T00:07:11.031Z,88.7
2016-06-03T00:07:13.969Z,88.9
2016-06-03T00:07:17.875Z,88.9
2016-06-03T00:07:20.672Z,88.9
2016-06-03T00:07:23.609Z,88.8
2016-06-03T00:07:26.547Z,89.1
2016-06-03T00:07:30.484Z,89.2
2016-06-03T00:07:33.406Z,89.2
2016-06-03T00:07:36.344Z,89.2
2016-06-03T00:07:39.281Z,89.1
2016-06-03T00:07:43.206Z,88.9
2016-06-03T00:07:46.143Z,89.1
2016-06-03T00:07:49.081Z,89.4
2016-06-03T00:07:52.018Z,88.7
2016-06-03T00:07:55.940Z,89
2016-06-03T00:07:58.878Z,89.3
2016-06-03T00:08:01.815Z,89.2
2016-06-03T00:08:04.753Z,89.2
2016-06-03T00:08:08.518Z,89.4
2016-06-03T00:08:11.456Z,89.4
2016-06-03T00:08:14.253Z,88.8
2016-06-03T00:08:17.190Z,89.4
2016-06-03T00:08:20.956Z,88.6
2016-06-03T00:08:23.909Z,89.2
2016-06-03T00:08:26.831Z,89.2
2016-06-03T00:08:29.768Z,88.7
2016-06-03T00:08:33.534Z,88.7
2016-06-03T00:08:36.472Z,89.5
2016-06-03T00:08:39.409Z,89
2016-06-03T00:08:42.347Z,89.1
2016-06-03T00:08:46.270Z,89.2
2016-06-03T00:08:49.208Z,89.3
2016-06-03T00:08:52.145Z,89.3
2016-06-03T00:08:55.083Z,89.3
2016-06-03T00:08:59.005Z,89.1
2016-06-03T00:09:01.786Z,89.1
2016-06-03T00:09:04.739Z,89.2
2016-06-03T00:09:07.677Z,89.3
2016-06-03T00:09:11.599Z,89
2016-06-03T00:09:14.536Z,89.2
2016-06-03T00:09:17.474Z,89.2
2016-06-03T00:09:20.427Z,89.3
2016-06-03T00:09:24.349Z,89.2
2016-06-03T00:09:27.270Z,89.4
2016-06-03T00:09:30.224Z,89.2
2016-06-03T00:09:33.583Z,89.4
2016-06-03T00:09:37.380Z,89.4
2016-06-03T00:09:40.677Z,89.4
2016-06-03T00:09:43.633Z,89.3
2016-06-03T00:09:48.242Z,89
2016-06-03T00:09:50.898Z,89.1
2016-06-03T00:09:53.789Z,89.3
2016-06-03T00:09:56.742Z,89.4
2016-06-03T00:10:00.508Z,89.2
2016-06-03T00:10:03.883Z,89
2016-06-03T00:10:07.133Z,89
2016-06-03T00:10:11.242Z,89.1
2016-06-03T00:10:14.055Z,89.2
2016-06-03T00:10:17.008Z,88.9
2016-06-03T00:10:19.945Z,89.3
2016-06-03T00:10:23.773Z,89.1
2016-06-03T00:10:26.961Z,89.1
2016-06-03T00:10:29.758Z,89.1
2016-06-03T00:10:32.727Z,89.3
2016-06-03T00:10:36.711Z,89.2
2016-06-03T00:10:39.648Z,88.8
2016-06-03T00:10:42.854Z,89.4
2016-06-03T00:10:49.166Z,89.4
2016-06-03T00:10:51.963Z,89.3
2016-06-03T00:10:54.916Z,89.5
2016-06-03T00:10:58.822Z,89.5
2016-06-03T00:11:01.760Z,88.9
2016-06-03T00:11:04.697Z,89.2
2016-06-03T00:11:07.635Z,89
2016-06-03T00:11:11.400Z,89
2016-06-03T00:11:14.338Z,89.3
2016-06-03T00:11:17.275Z,89.1
2016-06-03T00:11:20.072Z,89.3
2016-06-03T00:11:23.994Z,89.3
2016-06-03T00:11:26.932Z,89.3
2016-06-03T00:11:29.869Z,89.3
2016-06-03T00:11:32.807Z,89.1
2016-06-03T00:11:36.729Z,89.6
2016-06-03T00:11:39.682Z,89.5
2016-06-03T00:11:42.604Z,89.3
2016-06-03T00:11:45.561Z,89.3
2016-06-03T00:11:49.483Z,89.3
2016-06-03T00:11:52.436Z,89.6
2016-06-03T00:11:55.373Z,89.5
2016-06-03T00:11:58.311Z,89.6
2016-06-03T00:12:02.217Z,89.4
2016-06-03T00:12:05.154Z,89.5
2016-06-03T00:12:08.092Z,89.3
2016-06-03T00:12:11.029Z,89.3
2016-06-03T00:12:14.936Z,89.5
2016-06-03T00:12:17.873Z,89.6
2016-06-03T00:12:20.826Z,89.6
2016-06-03T00:12:23.764Z,89.5
2016-06-03T00:12:27.670Z,89.5
2016-06-03T00:12:30.623Z,89.6
2016-06-03T00:12:33.561Z,89.3
2016-06-03T00:12:36.529Z,89.4
2016-06-03T00:12:40.467Z,89.3
2016-06-03T00:12:43.406Z,89.3
2016-06-03T00:12:46.203Z,89.4
2016-06-03T00:12:49.141Z,89.6
2016-06-03T00:12:53.078Z,89.4
2016-06-03T00:12:56.016Z,89.4
2016-06-03T00:12:58.797Z,89.4
2016-06-03T00:13:01.578Z,89.3
2016-06-03T00:13:05.485Z,90
2016-06-03T00:13:08.422Z,89.9
2016-06-03T00:13:11.360Z,89.6
2016-06-03T00:13:14.313Z,90
2016-06-03T00:13:18.219Z,89.5
2016-06-03T00:13:21.172Z,90.1
2016-06-03T00:13:23.969Z,89.7
2016-06-03T00:13:26.750Z,89.8
2016-06-03T00:13:30.516Z,89.9
2016-06-03T00:13:33.453Z,89.5
2016-06-03T00:13:36.391Z,89.7
2016-06-03T00:13:39.328Z,89.7
2016-06-03T00:13:43.253Z,89.8
2016-06-03T00:13:46.206Z,89.9
2016-06-03T00:13:49.144Z,89.9
2016-06-03T00:13:52.081Z,89.8
2016-06-03T00:13:55.847Z,90
2016-06-03T00:13:58.769Z,89.9
2016-06-03T00:14:01.722Z,90.1
2016-06-03T00:14:04.659Z,90
2016-06-03T00:14:08.566Z,90.1
2016-06-03T00:14:11.503Z,90.1
2016-06-03T00:14:14.456Z,90.1
2016-06-03T00:14:17.394Z,90.1
2016-06-03T00:14:21.159Z,89.9
2016-06-03T00:14:24.097Z,90.1
2016-06-03T00:14:26.878Z,89.8
2016-06-03T00:14:29.816Z,89.8
2016-06-03T00:14:33.738Z,89.8
2016-06-03T00:14:36.675Z,89.8
2016-06-03T00:14:39.628Z,89.9
2016-06-03T00:14:42.566Z,89.9
2016-06-03T00:14:46.334Z,89.9
2016-06-03T00:14:49.272Z,89.8
2016-06-03T00:14:52.209Z,89.9
2016-06-03T00:14:55.147Z,90.2
2016-06-03T00:14:59.069Z,89.6
2016-06-03T00:15:01.991Z,89.7
2016-06-03T00:15:04.944Z,90.2
2016-06-03T00:15:07.725Z,89.6
2016-06-03T00:15:11.647Z,89.8
2016-06-03T00:15:14.584Z,89.7
2016-06-03T00:15:17.522Z,89.7
2016-06-03T00:15:20.475Z,89.7
2016-06-03T00:15:24.381Z,89.8
2016-06-03T00:15:27.319Z,89.8
2016-06-03T00:15:30.256Z,89.8
2016-06-03T00:15:33.194Z,89.9
2016-06-03T00:15:37.131Z,89.9
2016-06-03T00:15:40.069Z,89.5
2016-06-03T00:15:43.006Z,89.8
2016-06-03T00:15:45.961Z,89.6
2016-06-03T00:15:49.868Z,89.5
2016-06-03T00:15:52.805Z,89.9
2016-06-03T00:15:55.743Z,89.5
2016-06-03T00:15:58.680Z,89.5
2016-06-03T00:16:02.602Z,89.7
2016-06-03T00:16:05.539Z,89.4
2016-06-03T00:16:08.477Z,89.5
2016-06-03T00:16:11.430Z,89.5
2016-06-03T00:16:15.352Z,89.6
2016-06-03T00:16:18.289Z,89.5
2016-06-03T00:16:21.227Z,89.7
2016-06-03T00:16:24.164Z,89.7
2016-06-03T00:16:28.071Z,89.5
2016-06-03T00:16:31.024Z,89.5
2016-06-03T00:16:33.946Z,89.5
2016-06-03T00:16:36.743Z,90.4
2016-06-03T00:16:40.680Z,90
2016-06-03T00:16:43.621Z,89.9
2016-06-03T00:16:46.558Z,89.7
2016-06-03T00:16:49.496Z,89.7
2016-06-03T00:16:53.417Z,89.8
2016-06-03T00:16:56.355Z,89.7
2016-06-03T00:16:59.292Z,90
2016-06-03T00:17:02.230Z,89.9
2016-06-03T00:17:06.152Z,90.5
2016-06-03T00:17:09.089Z,89.9
2016-06-03T00:17:12.042Z,90
2016-06-03T00:17:14.824Z,90
2016-06-03T00:17:18.746Z,89.9
2016-06-03T00:17:21.667Z,90.1
2016-06-03T00:17:24.621Z,90.2
2016-06-03T00:17:27.558Z,89.9
2016-06-03T00:17:31.480Z,90.3
2016-06-03T00:17:34.417Z,90.2
2016-06-03T00:17:37.355Z,90.2
2016-06-03T00:17:40.292Z,90
2016-06-03T00:17:44.217Z,90.1
2016-06-03T00:17:47.155Z,89.9
2016-06-03T00:17:50.092Z,90.3
2016-06-03T00:17:52.874Z,90.4
2016-06-03T00:17:56.780Z,90.3
2016-06-03T00:17:59.717Z,90.4
2016-06-03T00:18:02.655Z,90
2016-06-03T00:18:05.608Z,90.2
2016-06-03T00:18:09.530Z,90.3
2016-06-03T00:18:12.467Z,89.9
2016-06-03T00:18:15.405Z,90.7
2016-06-03T00:18:18.342Z,90.4
2016-06-03T00:18:22.264Z,90.2
2016-06-03T00:18:25.202Z,90.3
2016-06-03T00:18:28.139Z,90
2016-06-03T00:18:31.077Z,90.3
2016-06-03T00:18:34.999Z,90.3
2016-06-03T00:18:37.952Z,90.4
2016-06-03T00:18:40.889Z,90.4
2016-06-03T00:18:43.830Z,90.4
2016-06-03T00:18:47.752Z,90.5
2016-06-03T00:18:50.689Z,90.4
2016-06-03T00:18:53.627Z,90.4
2016-06-03T00:18:56.423Z,90.4
2016-06-03T00:19:00.330Z,90.4
2016-06-03T00:19:03.127Z,90.3
2016-06-03T00:19:06.095Z,89.9
2016-06-03T00:19:09.033Z,89.5
2016-06-03T00:19:12.798Z,89.8
2016-06-03T00:19:15.736Z,89.7
2016-06-03T00:19:18.673Z,89.8
2016-06-03T00:19:21.611Z,89.9
2016-06-03T00:19:25.377Z,90.1
2016-06-03T00:19:28.314Z,89.8
2016-06-03T00:19:31.111Z,89.4
2016-06-03T00:19:34.064Z,89.7
2016-06-03T00:19:37.970Z,89.7
2016-06-03T00:19:40.908Z,89.7
2016-06-03T00:19:43.848Z,90.5
2016-06-03T00:19:46.786Z,90.5
2016-06-03T00:19:50.708Z,90.4
2016-06-03T00:19:54.223Z,90.3
2016-06-03T00:19:57.161Z,90.4
2016-06-03T00:20:01.083Z,90.4
2016-06-03T00:20:04.036Z,90.2
2016-06-03T00:20:06.973Z,90.5
2016-06-03T00:20:09.911Z,90.6
2016-06-03T00:20:13.833Z,90.1
2016-06-03T00:20:16.770Z,90.1
2016-06-03T00:20:19.708Z,90.3
2016-06-03T00:20:22.645Z,90.2
2016-06-03T00:20:26.567Z,90.2
2016-06-03T00:20:29.348Z,90.2
2016-06-03T00:20:32.286Z,90.4
2016-06-03T00:20:35.223Z,90.6
2016-06-03T00:20:39.145Z,90.4
2016-06-03T00:20:42.083Z,90.5
2016-06-03T00:20:45.021Z,90.4
2016-06-03T00:20:47.959Z,90.4
2016-06-03T00:20:51.865Z,90.1
2016-06-03T00:20:54.802Z,90.4
2016-06-03T00:20:57.599Z,90.3
2016-06-03T00:21:00.396Z,90.4
2016-06-03T00:21:04.318Z,90.1
2016-06-03T00:21:07.256Z,90.1
2016-06-03T00:21:10.209Z,90.4
2016-06-03T00:21:13.146Z,90.1
2016-06-03T00:21:16.912Z,90.4
2016-06-03T00:21:19.834Z,90.5
2016-06-03T00:21:22.771Z,90.4
2016-06-03T00:21:25.709Z,90.5
2016-06-03T00:21:29.631Z,90.3
2016-06-03T00:21:32.584Z,90.4
2016-06-03T00:21:35.381Z,89.9
2016-06-03T00:21:38.318Z,90.4
2016-06-03T00:21:42.240Z,90.1
2016-06-03T00:21:45.181Z,90.2
2016-06-03T00:21:47.978Z,90.3
2016-06-03T00:21:50.916Z,90.6
2016-06-03T00:21:54.838Z,90.4
2016-06-03T00:21:57.791Z,90.5
2016-06-03T00:22:00.728Z,90.5
2016-06-03T00:22:03.666Z,90.1
2016-06-03T00:22:07.431Z,90.2
2016-06-03T00:22:10.369Z,90.2
2016-06-03T00:22:13.306Z,90.2
2016-06-03T00:22:16.244Z,90.4
2016-06-03T00:22:20.010Z,90.4
2016-06-03T00:22:22.947Z,90.1
2016-06-03T00:22:25.900Z,90.1
2016-06-03T00:22:28.853Z,90.4
2016-06-03T00:22:32.760Z,90.2
2016-06-03T00:22:35.697Z,90.1
2016-06-03T00:22:38.635Z,90.4
2016-06-03T00:22:41.572Z,89.9
2016-06-03T00:22:45.496Z,89.9
2016-06-03T00:22:48.277Z,90.4
2016-06-03T00:22:51.215Z,90.4
2016-06-03T00:22:54.152Z,90.2
2016-06-03T00:22:58.058Z,90.1
2016-06-03T00:23:00.996Z,90.2
2016-06-03T00:23:03.949Z,90.6
2016-06-03T00:23:06.887Z,90.6
2016-06-03T00:23:10.793Z,90.6
2016-06-03T00:23:13.715Z,90.6
2016-06-03T00:23:16.652Z,90.2
2016-06-03T00:23:19.449Z,90.2
2016-06-03T00:23:23.355Z,90.5
2016-06-03T00:23:26.293Z,90.6
2016-06-03T00:23:29.074Z,90.4
2016-06-03T00:23:32.012Z,90.6
2016-06-03T00:23:35.933Z,90.5
2016-06-03T00:23:38.855Z,90.5
2016-06-03T00:23:41.808Z,90.6
2016-06-03T00:23:44.749Z,90.6
2016-06-03T00:23:48.655Z,90.4
2016-06-03T00:23:51.593Z,90.6
2016-06-03T00:23:54.374Z,90.4
2016-06-03T00:23:57.311Z,90.4
2016-06-03T00:24:01.233Z,90.4
2016-06-03T00:24:04.155Z,90.3
2016-06-03T00:24:07.108Z,90.5
2016-06-03T00:24:10.030Z,90.3
2016-06-03T00:24:13.952Z,90.3
2016-06-03T00:24:16.890Z,90.4
2016-06-03T00:24:19.827Z,90.4
2016-06-03T00:24:22.765Z,90.5
2016-06-03T00:24:26.671Z,90.4
2016-06-03T00:24:29.608Z,90.6
2016-06-03T00:24:32.561Z,90.6
2016-06-03T00:24:35.186Z,90.2
2016-06-03T00:24:38.890Z,90.6
2016-06-03T00:24:41.624Z,90.6
2016-06-03T00:24:45.220Z,90.8
2016-06-03T00:24:49.267Z,90.7
2016-06-03T00:24:52.204Z,90.7
2016-06-03T00:24:56.595Z,90.8
2016-06-03T00:25:00.954Z,90.8
2016-06-03T00:25:03.907Z,90.7
2016-06-03T00:25:06.720Z,90.2
2016-06-03T00:25:10.595Z,90.4
2016-06-03T00:25:13.392Z,90.5
2016-06-03T00:25:16.173Z,90.6
2016-06-03T00:25:19.204Z,90.8
2016-06-03T00:25:23.876Z,90.6
2016-06-03T00:25:26.829Z,90.6
2016-06-03T00:25:30.454Z,90.7
2016-06-03T00:25:35.032Z,90.6
2016-06-03T00:25:37.813Z,90.8
2016-06-03T00:25:41.329Z,90.8
2016-06-03T00:25:45.707Z,90.5
2016-06-03T00:25:49.629Z,90.8
2016-06-03T00:25:52.551Z,90.8
2016-06-03T00:25:56.473Z,91
2016-06-03T00:25:59.395Z,90.5
2016-06-03T00:26:02.332Z,90.8
2016-06-03T00:26:05.113Z,90.7
2016-06-03T00:26:09.035Z,90.8
2016-06-03T00:26:11.973Z,91
2016-06-03T00:26:14.941Z,90.7
2016-06-03T00:26:17.863Z,90.6
2016-06-03T00:26:21.785Z,90.6
2016-06-03T00:26:24.723Z,91
2016-06-03T00:26:27.660Z,91
2016-06-03T00:26:30.598Z,90.6
2016-06-03T00:26:34.520Z,90.6
2016-06-03T00:26:37.301Z,90.3
2016-06-03T00:26:40.238Z,90.3
2016-06-03T00:26:43.176Z,90.6
2016-06-03T00:26:47.085Z,90.7
2016-06-03T00:26:50.023Z,90.5
2016-06-03T00:26:52.960Z,90.3
2016-06-03T00:26:55.898Z,90.3
2016-06-03T00:26:59.648Z,90.3
2016-06-03T00:27:02.585Z,90.7
2016-06-03T00:27:05.523Z,90.8
2016-06-03T00:27:08.460Z,90.9
2016-06-03T00:27:12.382Z,90.8
2016-06-03T00:27:15.163Z,90.9
2016-06-03T00:27:18.101Z,90.7
2016-06-03T00:27:21.038Z,90.8
2016-06-03T00:27:24.944Z,90.9
2016-06-03T00:27:27.726Z,90.9
2016-06-03T00:27:30.648Z,90.8
2016-06-03T00:27:33.601Z,91.1
2016-06-03T00:27:37.523Z,91
2016-06-03T00:27:40.460Z,91.4
2016-06-03T00:27:43.382Z,91.4
2016-06-03T00:27:46.321Z,91.2
2016-06-03T00:27:50.243Z,91.3
2016-06-03T00:27:53.181Z,91.4
2016-06-03T00:27:56.118Z,91.4
2016-06-03T00:27:59.040Z,91.1
2016-06-03T00:28:02.962Z,91.1
2016-06-03T00:28:05.900Z,91.1
2016-06-03T00:28:08.837Z,91.1
2016-06-03T00:28:11.634Z,91.2
2016-06-03T00:28:15.540Z,91.1
2016-06-03T00:28:18.478Z,90.8
2016-06-03T00:28:21.415Z,91.1
2016-06-03T00:28:24.353Z,90.9
2016-06-03T00:28:27.946Z,91.2
2016-06-03T00:28:30.884Z,91.2
2016-06-03T00:28:33.837Z,91.2
2016-06-03T00:28:36.790Z,90.9
2016-06-03T00:28:40.696Z,90.8
2016-06-03T00:28:43.638Z,90.9
2016-06-03T00:28:46.575Z,91
2016-06-03T00:28:49.357Z,91
2016-06-03T00:28:53.279Z,91
2016-06-03T00:28:56.200Z,91
2016-06-03T00:28:59.138Z,91
2016-06-03T00:29:02.091Z,91
2016-06-03T00:29:06.013Z,90.9
2016-06-03T00:29:08.950Z,91
2016-06-03T00:29:11.888Z,91.1
2016-06-03T00:29:14.825Z,90.9
2016-06-03T00:29:18.966Z,91.1
2016-06-03T00:29:21.904Z,91.2
2016-06-03T00:29:24.841Z,90.9
2016-06-03T00:29:27.779Z,90.9
2016-06-03T00:29:31.685Z,90.9
2016-06-03T00:29:34.654Z,90.9
2016-06-03T00:29:37.591Z,90.9
2016-06-03T00:29:40.529Z,90.9
2016-06-03T00:29:44.437Z,91
2016-06-03T00:29:47.406Z,91
2016-06-03T00:29:50.187Z,90.9
2016-06-03T00:29:53.124Z,90.9
2016-06-03T00:29:57.031Z,91.3
2016-06-03T00:29:59.827Z,91.1
2016-06-03T00:30:02.765Z,91.1
2016-06-03T00:30:05.702Z,91.1
2016-06-03T00:30:09.624Z,91
2016-06-03T00:30:12.546Z,91.1
2016-06-03T00:30:15.499Z,91.4
2016-06-03T00:30:18.437Z,91.2
2016-06-03T00:30:22.202Z,91.2
2016-06-03T00:30:25.140Z,91.2
2016-06-03T00:30:28.077Z,91.2
2016-06-03T00:30:30.859Z,91.1
2016-06-03T00:30:34.796Z,91.2
2016-06-03T00:30:37.734Z,91.7
2016-06-03T00:30:40.671Z,91.3
2016-06-03T00:30:43.611Z,91.2
2016-06-03T00:30:47.517Z,91.3
2016-06-03T00:30:50.454Z,91.2
2016-06-03T00:30:53.392Z,90.9
2016-06-03T00:30:56.173Z,91.1
2016-06-03T00:31:04.095Z,91.4
2016-06-03T00:31:07.751Z,91.4
2016-06-03T00:31:11.673Z,91.3
2016-06-03T00:31:14.611Z,91.2
2016-06-03T00:31:17.564Z,91.4
2016-06-03T00:31:20.501Z,91.3
2016-06-03T00:31:24.283Z,91.1
2016-06-03T00:31:27.204Z,91.1
2016-06-03T00:31:30.142Z,91
2016-06-03T00:31:33.079Z,91.3
2016-06-03T00:31:36.845Z,91.3
2016-06-03T00:31:39.783Z,91.4
2016-06-03T00:31:42.720Z,91.1
2016-06-03T00:31:45.662Z,91.6
2016-06-03T00:31:49.583Z,91.4
2016-06-03T00:31:52.537Z,91.1
2016-06-03T00:31:55.474Z,91.6
2016-06-03T00:31:58.412Z,91.6
2016-06-03T00:32:02.318Z,91.7
2016-06-03T00:32:05.255Z,91.6
2016-06-03T00:32:08.193Z,91.7
2016-06-03T00:32:11.115Z,91.4
2016-06-03T00:32:15.037Z,91.7
2016-06-03T00:32:17.974Z,91.5
2016-06-03T00:32:20.912Z,91.6
2016-06-03T00:32:23.849Z,91.7
2016-06-03T00:32:27.771Z,91.5
2016-06-03T00:32:30.708Z,91.7
2016-06-03T00:32:33.646Z,91.6
2016-06-03T00:32:36.568Z,91.5
2016-06-03T00:32:40.490Z,91.6
2016-06-03T00:32:43.427Z,91.5
2016-06-03T00:32:46.367Z,91.5
2016-06-03T00:32:49.320Z,91.5
2016-06-03T00:32:53.226Z,91.7
2016-06-03T00:32:56.164Z,91.6
2016-06-03T00:32:59.101Z,91.6
2016-06-03T00:33:02.039Z,91.6
2016-06-03T00:33:05.945Z,91.6
2016-06-03T00:33:08.898Z,91.5
2016-06-03T00:33:11.835Z,91.6
2016-06-03T00:33:14.773Z,91.6
2016-06-03T00:33:18.679Z,91.6
2016-06-03T00:33:21.617Z,91.2
2016-06-03T00:33:24.554Z,90.9
2016-06-03T00:33:27.335Z,90.9
2016-06-03T00:33:31.101Z,91.2
2016-06-03T00:33:34.039Z,91.1
2016-06-03T00:33:36.976Z,91.1
2016-06-03T00:33:39.914Z,90.9
2016-06-03T00:33:43.838Z,90.9
2016-06-03T00:33:46.760Z,91.1
2016-06-03T00:33:49.698Z,90.9
2016-06-03T00:33:52.635Z,91.1
2016-06-03T00:33:56.557Z,91.4
2016-06-03T00:33:59.495Z,91.1
2016-06-03T00:34:02.432Z,91.2
2016-06-03T00:34:05.354Z,91.3
2016-06-03T00:34:09.292Z,91.4
2016-06-03T00:34:12.229Z,91.6
2016-06-03T00:34:15.167Z,91.6
2016-06-03T00:34:18.104Z,91.6
2016-06-03T00:34:22.010Z,91.5
2016-06-03T00:34:24.963Z,91.6
2016-06-03T00:34:27.885Z,91.6
2016-06-03T00:34:30.823Z,91.6
2016-06-03T00:34:34.745Z,91.1
2016-06-03T00:34:37.682Z,91.3
2016-06-03T00:34:40.620Z,91.4
2016-06-03T00:34:43.557Z,91.2
2016-06-03T00:34:47.465Z,91.4
2016-06-03T00:34:50.419Z,91.6
2016-06-03T00:34:53.200Z,91.6
2016-06-03T00:34:56.137Z,91.6
2016-06-03T00:35:00.044Z,91.5
2016-06-03T00:35:02.981Z,91.4
2016-06-03T00:35:05.903Z,91.6
2016-06-03T00:35:08.840Z,91.5
2016-06-03T00:35:12.622Z,91.7
2016-06-03T00:35:15.403Z,91.4
2016-06-03T00:35:18.340Z,91.6
2016-06-03T00:35:21.122Z,91.5
2016-06-03T00:35:24.903Z,91.6
2016-06-03T00:35:27.840Z,91.5
2016-06-03T00:35:30.794Z,91.3
2016-06-03T00:35:33.731Z,91.4
2016-06-03T00:35:37.653Z,91.7
2016-06-03T00:35:40.590Z,91.3
2016-06-03T00:35:43.528Z,91.8
2016-06-03T00:35:46.468Z,91.4
2016-06-03T00:35:50.375Z,91.6
2016-06-03T00:35:53.312Z,91.4
2016-06-03T00:35:56.250Z,91.5
2016-06-03T00:35:59.187Z,91.4
2016-06-03T00:36:03.109Z,91.5
2016-06-03T00:36:06.047Z,91.7
2016-06-03T00:36:08.984Z,91.4
2016-06-03T00:36:11.937Z,91.9
2016-06-03T00:36:15.843Z,91.8
2016-06-03T00:36:18.765Z,91.8
2016-06-03T00:36:21.562Z,91.8
2016-06-03T00:36:24.500Z,91.6
2016-06-03T00:36:28.406Z,91.6
2016-06-03T00:36:31.343Z,91.5
2016-06-03T00:36:34.281Z,91.6
2016-06-03T00:36:37.218Z,91.3
2016-06-03T00:36:41.140Z,91.3
2016-06-03T00:36:44.081Z,91.6
2016-06-03T00:36:47.018Z,91.3
2016-06-03T00:36:49.956Z,91.3
2016-06-03T00:36:53.862Z,91.9
2016-06-03T00:36:56.800Z,91.3
2016-06-03T00:36:59.737Z,91.6
2016-06-03T00:37:02.675Z,91.8
2016-06-03T00:37:06.596Z,91.5
2016-06-03T00:37:09.518Z,91.6
2016-06-03T00:37:12.456Z,92
2016-06-03T00:37:15.393Z,91.9
2016-06-03T00:37:19.315Z,91.9
2016-06-03T00:37:22.253Z,92
2016-06-03T00:37:25.175Z,92
2016-06-03T00:37:28.128Z,92.1
2016-06-03T00:37:32.034Z,92.1
2016-06-03T00:37:34.971Z,92
2016-06-03T00:37:37.893Z,92.1
2016-06-03T00:37:40.831Z,92
2016-06-03T00:37:44.755Z,92
2016-06-03T00:37:47.692Z,92
2016-06-03T00:37:50.630Z,92.2
2016-06-03T00:37:53.567Z,92
2016-06-03T00:37:57.473Z,91.9
2016-06-03T00:38:00.411Z,92
2016-06-03T00:38:03.348Z,91.6
2016-06-03T00:38:06.145Z,91.6
2016-06-03T00:38:09.895Z,91.6
2016-06-03T00:38:12.833Z,92
2016-06-03T00:38:15.770Z,92
2016-06-03T00:38:18.708Z,91.6
2016-06-03T00:38:22.614Z,91.4
2016-06-03T00:38:25.552Z,91.4
2016-06-03T00:38:28.505Z,91.4
2016-06-03T00:38:31.286Z,91.7
2016-06-03T00:38:35.208Z,91.5
2016-06-03T00:38:38.145Z,91.8
2016-06-03T00:38:41.083Z,91.9
2016-06-03T00:38:44.023Z,91.3
2016-06-03T00:38:47.773Z,91.7
2016-06-03T00:38:50.555Z,91.6
2016-06-03T00:38:53.492Z,92.1
2016-06-03T00:38:56.430Z,92
2016-06-03T00:39:00.351Z,91.8
2016-06-03T00:39:03.273Z,91.7
2016-06-03T00:39:06.211Z,91.9
2016-06-03T00:39:08.992Z,91.8
2016-06-03T00:39:12.914Z,91.7
2016-06-03T00:39:15.851Z,91.7
2016-06-03T00:39:18.789Z,92.2
2016-06-03T00:39:21.726Z,91.9
2016-06-03T00:39:25.648Z,91.8
2016-06-03T00:39:28.586Z,92.1
2016-06-03T00:39:31.539Z,92.2
2016-06-03T00:39:34.476Z,92.3
2016-06-03T00:39:38.492Z,92.2
2016-06-03T00:39:41.398Z,92.2
2016-06-03T00:39:45.292Z,92.3
2016-06-03T00:39:48.995Z,92.2
2016-06-03T00:39:52.542Z,92.3
2016-06-03T00:39:56.495Z,91.8
2016-06-03T00:40:00.136Z,92.2
2016-06-03T00:40:03.151Z,91.9
2016-06-03T00:40:06.417Z,92.2
2016-06-03T00:40:10.214Z,91.9
2016-06-03T00:40:14.026Z,92.2
2016-06-03T00:40:17.495Z,92.2
2016-06-03T00:40:21.636Z,91.9
2016-06-03T00:40:24.292Z,92.2
2016-06-03T00:40:27.339Z,92
2016-06-03T00:40:30.308Z,92.2
2016-06-03T00:40:34.026Z,91.8
2016-06-03T00:40:37.058Z,91.9
2016-06-03T00:40:40.479Z,91.9
2016-06-03T00:40:45.061Z,91.6
2016-06-03T00:40:47.857Z,91.7
2016-06-03T00:40:50.951Z,91.8
2016-06-03T00:40:54.889Z,91.9
2016-06-03T00:40:57.670Z,91.9
2016-06-03T00:41:00.607Z,92.1
2016-06-03T00:41:03.545Z,92.1
2016-06-03T00:41:07.467Z,91.9
2016-06-03T00:41:10.404Z,91.6
2016-06-03T00:41:13.326Z,91.9
2016-06-03T00:41:16.264Z,91.7
2016-06-03T00:41:20.186Z,92.2
2016-06-03T00:41:22.982Z,92.3
2016-06-03T00:41:25.920Z,92.2
2016-06-03T00:41:28.842Z,92
2016-06-03T00:41:32.764Z,92.2
2016-06-03T00:41:35.701Z,92.3
2016-06-03T00:41:38.639Z,92.2
2016-06-03T00:41:41.576Z,91.9
2016-06-03T00:41:45.485Z,92.2
2016-06-03T00:41:48.439Z,92.2
2016-06-03T00:41:51.360Z,92.2
2016-06-03T00:41:54.314Z,92
2016-06-03T00:41:58.220Z,91.7
2016-06-03T00:42:01.157Z,91.9
2016-06-03T00:42:04.110Z,92
2016-06-03T00:42:07.032Z,91.8
2016-06-03T00:42:10.954Z,92.1
2016-06-03T00:42:13.892Z,92
2016-06-03T00:42:16.829Z,91.6
2016-06-03T00:42:19.782Z,91.6
2016-06-03T00:42:23.689Z,91.7
2016-06-03T00:42:26.626Z,91.9
2016-06-03T00:42:29.407Z,91.8
2016-06-03T00:42:32.345Z,91.7
2016-06-03T00:42:36.251Z,92.1
2016-06-03T00:42:39.189Z,92.1
2016-06-03T00:42:42.126Z,91.9
2016-06-03T00:42:45.066Z,92.2